createdAt,value
2018-08-18T00:00:19.312Z,78.61
2018-08-18T00:02:47.997Z,78.64
2018-08-18T00:05:17.400Z,78.10
2018-08-18T00:07:46.108Z,78.58
2018-08-18T00:10:17.692Z,78.38
2018-08-18T00:12:46.450Z,78.25
2018-08-18T00:15:15.163Z,78.44
2018-08-18T00:17:43.855Z,78.48
2018-08-18T00:20:15.558Z,78.84
2018-08-18T00:22:44.396Z,78.84
2018-08-18T00:25:13.069Z,79.09
2018-08-18T00:27:42.323Z,78.87
2018-08-18T00:30:16.636Z,78.84
2018-08-18T00:32:45.576Z,78.58
2018-08-18T00:35:14.287Z,78.80
2018-08-18T00:37:43.241Z,79.16
2018-08-18T00:40:12.495Z,79.06
2018-08-18T00:42:41.480Z,78.90
2018-08-18T00:45:11.484Z,78.87
2018-08-18T00:47:40.246Z,78.58
2018-08-18T00:50:09.914Z,78.66
2018-08-18T00:52:38.881Z,78.88
2018-08-18T00:55:07.937Z,79.11
2018-08-18T00:57:36.564Z,79.18
2018-08-18T01:00:06.368Z,79.44
2018-08-18T01:02:35.353Z,79.48
2018-08-18T01:05:05.486Z,80.02
2018-08-18T01:07:34.261Z,79.75
2018-08-18T01:10:03.300Z,79.72
2018-08-18T01:12:32.248Z,79.44
2018-08-18T01:15:00.825Z,79.87
2018-08-18T01:17:29.456Z,79.29
2018-08-18T01:19:58.953Z,78.54
2018-08-18T01:22:27.682Z,78.06
2018-08-18T01:24:56.389Z,77.76
2018-08-18T01:27:25.096Z,77.58
2018-08-18T01:30:01.971Z,77.52
2018-08-18T01:32:31.471Z,76.88
2018-08-18T01:35:00.852Z,77.27
2018-08-18T01:37:31.042Z,77.14
2018-08-18T01:39:59.846Z,77.20
2018-08-18T01:42:29.511Z,77.06
2018-08-18T01:44:58.177Z,76.20
2018-08-18T01:47:26.885Z,76.61
2018-08-18T01:49:55.695Z,76.16
2018-08-18T01:52:25.488Z,75.87
2018-08-18T01:54:54.128Z,76.22
2018-08-18T01:57:23.527Z,76.16
2018-08-18T01:59:54.301Z,76.84
2018-08-18T02:02:25.600Z,76.65
2018-08-18T02:04:54.844Z,77.09
2018-08-18T02:07:33.083Z,77.29
2018-08-18T02:10:01.869Z,77.26
2018-08-18T02:12:30.562Z,76.78
2018-08-18T02:15:00.015Z,75.83
2018-08-18T02:17:37.840Z,76.29
2018-08-18T02:20:09.164Z,76.27
2018-08-18T02:22:37.773Z,76.58
2018-08-18T02:25:06.591Z,76.74
2018-08-18T02:27:35.349Z,76.99
2018-08-18T02:30:15.876Z,77.17
2018-08-18T02:32:44.605Z,77.60
2018-08-18T02:35:13.341Z,77.05
2018-08-18T02:37:42.029Z,78.12
2018-08-18T02:40:14.117Z,78.69
2018-08-18T02:42:42.750Z,78.71
2018-08-18T02:45:12.172Z,79.38
2018-08-18T02:47:40.983Z,79.25
2018-08-18T02:50:10.991Z,80.35
2018-08-18T02:52:39.788Z,80.87
2018-08-18T02:55:10.287Z,81.06
2018-08-18T02:57:42.425Z,81.48
2018-08-18T03:00:22.700Z,81.86
2018-08-18T03:02:51.601Z,82.82
2018-08-18T03:05:20.598Z,83.31
2018-08-18T03:07:50.198Z,83.60
2018-08-18T03:10:25.997Z,83.79
2018-08-18T03:12:57.203Z,83.94
2018-08-18T03:16:06.644Z,84.24
2018-08-18T03:18:42.273Z,84.76
2018-08-18T03:21:10.960Z,85.13
2018-08-18T03:23:49.762Z,85.08
2018-08-18T03:26:20.960Z,84.87
2018-08-18T03:28:50.941Z,84.35
2018-08-18T03:31:19.930Z,83.60
2018-08-18T03:33:48.659Z,82.79
2018-08-18T03:36:29.869Z,82.98
2018-08-18T03:38:58.869Z,82.67
2018-08-18T03:41:28.490Z,82.99
2018-08-18T03:43:57.834Z,84.09
2018-08-18T03:46:26.585Z,84.35
2018-08-18T03:48:55.344Z,83.27
2018-08-18T03:51:28.505Z,82.79
2018-08-18T03:53:57.472Z,82.82
2018-08-18T03:56:26.111Z,82.47
2018-08-18T03:58:55.999Z,81.02
2018-08-18T04:02:00.494Z,81.00
2018-08-18T04:04:35.276Z,81.66
2018-08-18T04:07:05.370Z,81.70
2018-08-18T04:09:36.068Z,81.09
2018-08-18T04:12:06.032Z,80.79
2018-08-18T04:14:42.932Z,80.93
2018-08-18T04:17:23.774Z,80.42
2018-08-18T04:19:52.468Z,80.72
2018-08-18T04:22:22.727Z,80.56
2018-08-18T04:24:51.452Z,80.89
2018-08-18T04:27:43.495Z,81.31
2018-08-18T04:30:15.444Z,81.18
2018-08-18T04:32:53.738Z,81.31
2018-08-18T04:35:25.658Z,81.70
2018-08-18T04:37:55.120Z,81.41
2018-08-18T04:40:24.436Z,81.02
2018-08-18T04:42:55.571Z,80.82
2018-08-18T04:45:24.895Z,79.80
2018-08-18T04:47:53.618Z,80.69
2018-08-18T04:50:22.748Z,80.51
2018-08-18T04:52:53.060Z,80.81
2018-08-18T04:55:21.939Z,80.71
2018-08-18T04:57:51.839Z,80.51
2018-08-18T05:00:20.576Z,79.80
2018-08-18T05:02:54.679Z,80.11
2018-08-18T05:05:26.776Z,79.74
2018-08-18T05:07:56.852Z,80.19
2018-08-18T05:10:25.936Z,80.44
2018-08-18T05:12:54.680Z,80.29
2018-08-18T05:15:23.420Z,80.34
2018-08-18T05:17:52.150Z,80.15
2018-08-18T05:20:22.741Z,79.25
2018-08-18T05:22:51.418Z,79.10
2018-08-18T05:25:26.845Z,79.39
2018-08-18T05:27:55.552Z,79.17
2018-08-18T05:30:24.790Z,80.03
2018-08-18T05:32:53.416Z,79.61
2018-08-18T05:35:22.155Z,78.96
2018-08-18T05:37:50.837Z,79.34
2018-08-18T05:40:19.540Z,78.56
2018-08-18T05:42:48.275Z,78.62
2018-08-18T05:45:31.089Z,78.96
2018-08-18T05:47:59.891Z,78.29
2018-08-18T05:50:29.561Z,78.24
2018-08-18T05:53:24.555Z,77.65
2018-08-18T05:55:53.232Z,77.42
2018-08-18T05:58:22.016Z,77.00
2018-08-18T06:01:22.740Z,78.58
2018-08-18T06:03:57.326Z,77.68
2018-08-18T06:06:26.224Z,77.03
2018-08-18T06:08:57.888Z,77.10
2018-08-18T06:11:26.713Z,76.67
2018-08-18T06:13:55.716Z,76.36
2018-08-18T06:16:24.381Z,76.13
2018-08-18T06:18:53.165Z,74.90
2018-08-18T06:21:21.874Z,74.47
2018-08-18T06:23:50.564Z,74.10
2018-08-18T06:26:19.311Z,73.43
2018-08-18T06:28:49.234Z,71.89
2018-08-18T06:31:18.148Z,70.28
2018-08-18T06:33:46.837Z,69.41
2018-08-18T06:36:15.539Z,69.07
2018-08-18T06:38:44.206Z,67.63
2018-08-18T06:41:12.994Z,67.34
2018-08-18T06:43:41.804Z,66.54
2018-08-18T06:46:10.501Z,64.67
2018-08-18T06:48:39.867Z,64.50
2018-08-18T06:51:08.944Z,63.63
2018-08-18T06:53:44.132Z,63.09
2018-08-18T06:56:12.930Z,63.68
2018-08-18T06:58:41.605Z,63.39
2018-08-18T07:01:11.187Z,61.16
2018-08-18T07:03:42.816Z,61.98
2018-08-18T07:06:14.477Z,61.30
2018-08-18T07:08:48.954Z,58.79
2018-08-18T07:11:17.654Z,58.37
2018-08-18T07:13:47.857Z,57.56
2018-08-18T07:16:16.655Z,55.71
2018-08-18T07:18:45.537Z,56.05
2018-08-18T07:21:14.288Z,55.35
2018-08-18T07:23:43.083Z,57.11
2018-08-18T07:26:11.829Z,53.43
2018-08-18T07:28:40.640Z,53.29
2018-08-18T07:31:09.442Z,52.76
2018-08-18T07:33:38.134Z,52.04
2018-08-18T07:36:06.907Z,52.81
2018-08-18T07:38:35.604Z,52.54
2018-08-18T07:41:04.353Z,52.14
2018-08-18T07:43:34.384Z,49.71
2018-08-18T07:46:04.796Z,50.49
2018-08-18T07:48:33.601Z,49.43
2018-08-18T07:51:02.327Z,50.41
2018-08-18T07:53:32.097Z,48.75
2018-08-18T07:56:00.884Z,50.01
2018-08-18T07:58:29.582Z,48.00
2018-08-18T08:01:00.164Z,47.55
2018-08-18T08:03:30.634Z,47.87
2018-08-18T08:06:00.385Z,46.74
2018-08-18T08:08:35.196Z,45.84
2018-08-18T08:11:09.400Z,44.61
2018-08-18T08:13:38.907Z,45.17
2018-08-18T08:16:07.612Z,43.82
2018-08-18T08:18:36.399Z,43.75
2018-08-18T08:21:05.173Z,42.47
2018-08-18T08:23:33.947Z,41.88
2018-08-18T08:26:03.509Z,40.67
2018-08-18T08:28:32.948Z,39.48
2018-08-18T08:31:01.624Z,40.09
2018-08-18T08:33:37.233Z,39.45
2018-08-18T08:36:09.268Z,38.61
2018-08-18T08:38:51.476Z,38.34
2018-08-18T08:41:22.475Z,38.12
2018-08-18T08:43:51.158Z,37.92
2018-08-18T08:46:20.361Z,37.99
2018-08-18T08:48:53.485Z,36.90
2018-08-18T08:51:22.843Z,36.70
2018-08-18T08:53:52.617Z,36.25
2018-08-18T08:56:29.665Z,36.16
2018-08-18T08:58:58.821Z,37.34
2018-08-18T09:01:27.437Z,38.97
2018-08-18T09:03:56.163Z,38.77
2018-08-18T09:06:24.908Z,38.98
2018-08-18T09:08:57.516Z,38.99
2018-08-18T09:11:26.779Z,39.56
2018-08-18T09:14:03.568Z,37.64
2018-08-18T09:16:33.191Z,37.10
2018-08-18T09:19:01.904Z,37.80
2018-08-18T09:22:04.861Z,36.96
2018-08-18T09:24:34.483Z,36.22
2018-08-18T09:27:05.146Z,35.66
2018-08-18T09:29:39.332Z,35.93
2018-08-18T09:32:08.074Z,36.96
2018-08-18T09:34:41.848Z,37.42
2018-08-18T09:37:11.108Z,35.98
2018-08-18T09:39:39.876Z,35.85
2018-08-18T09:42:10.104Z,35.45
2018-08-18T09:44:45.601Z,35.58
2018-08-18T09:47:14.303Z,33.59
2018-08-18T09:49:43.734Z,35.89
2018-08-18T09:52:16.098Z,35.52
2018-08-18T09:54:44.764Z,35.93
2018-08-18T09:57:13.478Z,37.64
2018-08-18T09:59:42.179Z,38.51
2018-08-18T10:02:14.313Z,38.14
2018-08-18T10:04:43.637Z,37.83
2018-08-18T10:07:12.706Z,37.19
2018-08-18T10:09:41.469Z,37.48
2018-08-18T10:12:10.476Z,37.93
2018-08-18T10:14:39.765Z,37.67
2018-08-18T10:17:08.473Z,36.61
2018-08-18T10:19:38.598Z,34.58
2018-08-18T10:22:07.329Z,35.53
2018-08-18T10:24:36.294Z,36.77
2018-08-18T10:27:06.007Z,36.29
2018-08-18T10:29:34.812Z,36.39
2018-08-18T10:32:04.484Z,35.35
2018-08-18T10:34:34.019Z,33.94
2018-08-18T10:37:13.352Z,32.93
2018-08-18T10:39:43.778Z,32.30
2018-08-18T10:42:27.418Z,31.14
2018-08-18T10:45:00.257Z,31.00
2018-08-18T10:47:29.559Z,30.53
2018-08-18T10:50:09.804Z,30.28
2018-08-18T10:52:49.942Z,31.22
2018-08-18T10:55:19.404Z,31.22
2018-08-18T10:57:56.952Z,31.43
2018-08-18T11:00:27.026Z,31.04
2018-08-18T11:02:57.891Z,31.05
2018-08-18T11:05:27.200Z,31.10
2018-08-18T11:08:02.107Z,31.33
2018-08-18T11:10:32.104Z,31.90
2018-08-18T11:13:01.078Z,30.70
2018-08-18T11:15:29.744Z,30.79
2018-08-18T11:17:59.111Z,31.71
2018-08-18T11:20:29.355Z,32.82
2018-08-18T11:23:00.363Z,32.49
2018-08-18T11:25:31.316Z,33.49
2018-08-18T11:28:00.293Z,33.06
2018-08-18T11:30:29.328Z,34.00
2018-08-18T11:32:58.854Z,34.87
2018-08-18T11:35:27.775Z,34.58
2018-08-18T11:37:57.887Z,34.91
2018-08-18T11:40:27.442Z,34.63
2018-08-18T11:43:00.591Z,34.57
2018-08-18T11:45:31.588Z,34.90
2018-08-18T11:48:19.052Z,34.00
2018-08-18T11:50:49.200Z,33.97
2018-08-18T11:53:17.879Z,32.57
2018-08-18T11:55:46.631Z,32.11
2018-08-18T11:58:20.601Z,31.36
2018-08-18T12:00:54.672Z,32.23
2018-08-18T12:03:29.551Z,31.40
2018-08-18T12:06:00.363Z,31.79
2018-08-18T12:08:30.308Z,31.25
2018-08-18T12:11:00.464Z,30.93
2018-08-18T12:13:34.440Z,31.52
2018-08-18T12:16:07.029Z,31.75
2018-08-18T12:18:37.710Z,31.83
2018-08-18T12:21:06.417Z,30.38
2018-08-18T12:23:36.876Z,31.26
2018-08-18T12:26:24.334Z,31.07
2018-08-18T12:28:55.884Z,31.04
2018-08-18T12:31:26.823Z,32.03
2018-08-18T12:33:55.604Z,32.10
2018-08-18T12:36:24.719Z,34.10
2018-08-18T12:38:55.094Z,36.30
2018-08-18T12:41:24.115Z,34.12
2018-08-18T12:43:54.598Z,33.32
2018-08-18T12:46:24.556Z,33.31
2018-08-18T12:48:54.336Z,33.39
2018-08-18T12:51:23.354Z,32.53
2018-08-18T12:53:54.328Z,31.69
2018-08-18T12:56:25.664Z,32.19
2018-08-18T12:58:54.452Z,31.87
2018-08-18T13:01:51.847Z,31.40
2018-08-18T13:04:21.705Z,33.78
2018-08-18T13:06:52.564Z,32.42
2018-08-18T13:09:23.510Z,30.69
2018-08-18T13:11:53.600Z,32.28
2018-08-18T13:14:24.889Z,32.72
2018-08-18T13:16:54.174Z,32.69
2018-08-18T13:19:24.384Z,32.68
2018-08-18T13:21:53.091Z,33.88
2018-08-18T13:24:21.756Z,33.60
2018-08-18T13:26:50.809Z,33.36
2018-08-18T13:29:19.994Z,33.94
2018-08-18T13:31:48.668Z,33.64
2018-08-18T13:34:18.987Z,34.29
2018-08-18T13:36:48.044Z,34.32
2018-08-18T13:39:20.141Z,33.98
2018-08-18T13:41:50.016Z,34.65
2018-08-18T13:44:26.532Z,34.94
2018-08-18T13:46:59.109Z,34.58
2018-08-18T13:49:28.312Z,33.42
2018-08-18T13:51:57.095Z,33.14
2018-08-18T13:54:25.854Z,32.68
2018-08-18T13:56:54.560Z,32.19
2018-08-18T13:59:46.589Z,32.30
2018-08-18T14:02:15.297Z,31.80
2018-08-18T14:04:44.248Z,31.88
2018-08-18T14:07:13.553Z,31.91
2018-08-18T14:09:43.673Z,32.14
2018-08-18T14:12:16.905Z,31.66
2018-08-18T14:14:46.318Z,31.78
2018-08-18T14:17:15.789Z,31.75
2018-08-18T14:19:44.628Z,32.93
2018-08-18T14:22:13.282Z,34.10
2018-08-18T14:24:42.135Z,33.62
2018-08-18T14:27:18.125Z,33.23
2018-08-18T14:29:46.927Z,33.46
2018-08-18T14:32:21.083Z,33.32
2018-08-18T14:35:07.464Z,33.77
2018-08-18T14:37:37.739Z,33.56
2018-08-18T14:40:10.569Z,34.51
2018-08-18T14:42:39.326Z,34.61
2018-08-18T14:45:10.125Z,34.58
2018-08-18T14:47:38.887Z,33.42
2018-08-18T14:50:15.948Z,34.42
2018-08-18T14:52:45.553Z,34.49
2018-08-18T14:55:15.168Z,34.89
2018-08-18T14:58:22.534Z,34.78
2018-08-18T15:00:53.653Z,34.97
2018-08-18T15:03:22.418Z,39.40
2018-08-18T15:05:51.252Z,40.86
2018-08-18T15:08:19.954Z,41.43
2018-08-18T15:10:48.656Z,41.51
2018-08-18T15:13:17.418Z,41.74
2018-08-18T15:15:46.226Z,42.55
2018-08-18T15:18:17.544Z,42.53
2018-08-18T15:20:46.846Z,42.20
2018-08-18T15:23:16.498Z,41.63
2018-08-18T15:25:45.987Z,41.31
2018-08-18T15:28:16.498Z,41.18
2018-08-18T15:30:49.439Z,40.90
2018-08-18T15:33:20.174Z,40.91
2018-08-18T15:35:49.688Z,40.57
2018-08-18T15:38:18.387Z,40.79
2018-08-18T15:40:47.387Z,40.75
2018-08-18T15:43:16.126Z,40.87
2018-08-18T15:46:01.710Z,41.38
2018-08-18T15:48:30.481Z,42.21
2018-08-18T15:50:59.198Z,42.87
2018-08-18T15:53:52.835Z,42.61
2018-08-18T15:56:22.265Z,41.71
2018-08-18T15:58:51.724Z,41.86
2018-08-18T16:01:24.791Z,41.42
2018-08-18T16:03:54.986Z,40.89
2018-08-18T16:06:24.044Z,42.63
2018-08-18T16:08:53.226Z,41.50
2018-08-18T16:11:21.913Z,41.72
2018-08-18T16:13:52.720Z,42.67
2018-08-18T16:16:21.388Z,41.97
2018-08-18T16:18:54.763Z,42.53
2018-08-18T16:21:24.212Z,42.22
2018-08-18T16:23:52.916Z,42.20
2018-08-18T16:26:23.349Z,43.31
2018-08-18T16:28:52.889Z,43.15
2018-08-18T16:31:21.634Z,43.36
2018-08-18T16:33:52.601Z,43.01
2018-08-18T16:36:23.912Z,43.07
2018-08-18T16:38:54.525Z,43.32
2018-08-18T16:41:23.880Z,43.03
2018-08-18T16:43:52.556Z,43.46
2018-08-18T16:46:25.395Z,42.95
2018-08-18T16:48:55.540Z,42.99
2018-08-18T16:51:25.570Z,43.68
2018-08-18T16:53:54.821Z,43.56
2018-08-18T16:56:27.323Z,43.72
2018-08-18T16:59:00.227Z,44.08
2018-08-18T17:01:29.017Z,43.64
2018-08-18T17:03:57.842Z,43.41
2018-08-18T17:06:26.619Z,43.21
2018-08-18T17:08:55.317Z,43.54
2018-08-18T17:11:24.051Z,43.35
2018-08-18T17:13:52.846Z,43.15
2018-08-18T17:16:21.787Z,42.85
2018-08-18T17:18:51.740Z,42.38
2018-08-18T17:21:21.721Z,43.00
2018-08-18T17:23:50.445Z,43.05
2018-08-18T17:26:19.277Z,42.68
2018-08-18T17:28:47.940Z,42.59
2018-08-18T17:31:17.125Z,42.83
2018-08-18T17:33:46.006Z,44.08
2018-08-18T17:36:15.744Z,42.44
2018-08-18T17:38:45.129Z,42.82
2018-08-18T17:41:14.321Z,43.06
2018-08-18T17:43:43.618Z,43.02
2018-08-18T17:46:12.307Z,43.31
2018-08-18T17:48:47.356Z,43.62
2018-08-18T17:51:16.066Z,43.57
2018-08-18T17:53:48.996Z,43.50
2018-08-18T17:56:17.836Z,43.64
2018-08-18T17:58:46.592Z,43.73
2018-08-18T18:01:16.533Z,44.11
2018-08-18T18:03:45.368Z,44.17
2018-08-18T18:06:14.622Z,44.30
2018-08-18T18:08:43.303Z,44.38
2018-08-18T18:11:12.161Z,44.54
2018-08-18T18:13:40.957Z,45.31
2018-08-18T18:16:20.923Z,44.76
2018-08-18T18:18:49.599Z,44.81
2018-08-18T18:21:18.245Z,45.79
2018-08-18T18:23:46.936Z,45.90
2018-08-18T18:26:16.038Z,46.33
2018-08-18T18:28:45.207Z,46.24
2018-08-18T18:31:15.335Z,46.62
2018-08-18T18:33:47.905Z,46.47
2018-08-18T18:36:16.580Z,46.52
2018-08-18T18:38:54.496Z,46.94
2018-08-18T18:41:25.017Z,47.48
2018-08-18T18:44:01.332Z,48.12
2018-08-18T18:46:30.071Z,47.86
2018-08-18T18:48:58.885Z,48.03
2018-08-18T18:51:28.628Z,48.38
2018-08-18T18:53:58.365Z,49.00
2018-08-18T18:56:27.904Z,48.88
2018-08-18T18:58:56.646Z,49.53
2018-08-18T19:01:25.349Z,49.75
2018-08-18T19:03:54.034Z,49.35
2018-08-18T19:06:22.800Z,49.74
2018-08-18T19:09:00.099Z,49.82
2018-08-18T19:11:29.977Z,50.06
2018-08-18T19:13:59.164Z,50.58
2018-08-18T19:16:28.559Z,50.77
2018-08-18T19:18:57.382Z,51.28
2018-08-18T19:21:32.790Z,52.00
2018-08-18T19:24:06.522Z,51.88
2018-08-18T19:26:58.641Z,51.93
2018-08-18T19:29:28.279Z,52.50
2018-08-18T19:32:00.424Z,52.76
2018-08-18T19:34:30.154Z,52.51
2018-08-18T19:37:04.151Z,52.96
2018-08-18T19:39:34.889Z,52.55
2018-08-18T19:42:13.897Z,53.38
2018-08-18T19:44:44.826Z,53.19
2018-08-18T19:47:19.005Z,53.89
2018-08-18T19:49:47.592Z,53.96
2018-08-18T19:52:17.393Z,54.38
2018-08-18T19:54:47.695Z,54.92
2018-08-18T19:57:25.502Z,55.06
2018-08-18T20:00:04.612Z,55.66
2018-08-18T20:02:48.998Z,56.02
2018-08-18T20:05:19.790Z,56.08
2018-08-18T20:07:48.567Z,56.34
2018-08-18T20:10:17.619Z,56.64
2018-08-18T20:12:46.300Z,56.66
2018-08-18T20:15:15.620Z,57.00
2018-08-18T20:17:44.714Z,57.43
2018-08-18T20:20:17.624Z,57.70
2018-08-18T20:22:46.301Z,57.61
2018-08-18T20:25:14.986Z,58.27
2018-08-18T20:27:44.599Z,59.28
2018-08-18T20:30:18.885Z,59.24
2018-08-18T20:32:47.578Z,58.08
2018-08-18T20:35:16.285Z,59.91
2018-08-18T20:37:45.977Z,60.52
2018-08-18T20:40:14.715Z,59.85
2018-08-18T20:42:44.456Z,60.14
2018-08-18T20:45:13.970Z,60.39
2018-08-18T20:47:44.016Z,60.61
2018-08-18T20:50:13.081Z,60.53
2018-08-18T20:52:41.912Z,60.28
2018-08-18T20:55:10.577Z,60.18
2018-08-18T20:57:39.267Z,60.52
2018-08-18T21:00:09.492Z,61.10
2018-08-18T21:02:39.094Z,61.33
2018-08-18T21:05:10.969Z,62.36
2018-08-18T21:07:40.070Z,62.59
2018-08-18T21:10:12.458Z,62.62
2018-08-18T21:12:45.955Z,62.92
2018-08-18T21:15:15.115Z,62.90
2018-08-18T21:17:44.132Z,63.31
2018-08-18T21:20:15.798Z,63.11
2018-08-18T21:22:44.575Z,63.47
2018-08-18T21:25:14.730Z,64.22
2018-08-18T21:27:43.878Z,64.04
2018-08-18T21:30:14.881Z,64.44
2018-08-18T21:32:44.201Z,64.47
2018-08-18T21:35:13.087Z,64.29
2018-08-18T21:37:41.765Z,64.37
2018-08-18T21:40:10.914Z,64.03
2018-08-18T21:42:39.612Z,63.81
2018-08-18T21:45:11.129Z,63.39
2018-08-18T21:47:39.847Z,63.71
2018-08-18T21:50:08.519Z,63.98
2018-08-18T21:52:37.176Z,63.77
2018-08-18T21:55:06.340Z,64.07
2018-08-18T21:57:50.745Z,64.06
2018-08-18T22:00:19.430Z,64.22
2018-08-18T22:02:48.740Z,64.46
2018-08-18T22:05:17.426Z,64.13
2018-08-18T22:07:51.867Z,64.40
2018-08-18T22:10:21.028Z,64.47
2018-08-18T22:12:49.687Z,64.19
2018-08-18T22:15:19.438Z,64.16
2018-08-18T22:17:49.260Z,64.45
2018-08-18T22:20:19.368Z,64.43
2018-08-18T22:22:48.107Z,64.56
2018-08-18T22:25:16.844Z,65.53
2018-08-18T22:27:45.534Z,65.46
2018-08-18T22:30:15.364Z,66.01
2018-08-18T22:32:45.490Z,66.09
2018-08-18T22:35:14.514Z,66.74
2018-08-18T22:37:43.247Z,66.73
2018-08-18T22:40:13.150Z,66.89
2018-08-18T22:42:41.869Z,66.43
2018-08-18T22:45:38.786Z,66.28
2018-08-18T22:48:08.863Z,66.96
2018-08-18T22:50:37.580Z,67.18
2018-08-18T22:53:06.381Z,67.10
2018-08-18T22:55:35.152Z,67.10
2018-08-18T22:58:03.885Z,67.10
2018-08-18T23:00:36.953Z,67.27
2018-08-18T23:03:05.701Z,66.99
2018-08-18T23:05:34.373Z,67.39
2018-08-18T23:08:03.020Z,67.95
2018-08-18T23:10:33.168Z,68.52
2018-08-18T23:13:02.505Z,68.44
2018-08-18T23:15:31.532Z,68.12
2018-08-18T23:18:00.216Z,68.25
2018-08-18T23:20:29.463Z,68.01
2018-08-18T23:23:00.224Z,68.54
2018-08-18T23:25:30.235Z,69.15
2018-08-18T23:27:59.023Z,69.04
2018-08-18T23:30:32.732Z,68.81
2018-08-18T23:33:02.249Z,68.78
2018-08-18T23:35:31.184Z,68.89
2018-08-18T23:38:00.027Z,68.88
2018-08-18T23:40:29.053Z,68.70
2018-08-18T23:42:57.756Z,68.88
2018-08-18T23:45:35.757Z,68.81
2018-08-18T23:48:06.597Z,68.41
2018-08-18T23:50:36.309Z,69.31
2018-08-18T23:53:08.292Z,68.28
2018-08-18T23:55:45.050Z,68.55
2018-08-18T23:58:13.752Z,68.44
